Alpine Forest, California
Current Conditions -  °F | °C
As of 11:15 AM on Monday 22 Dec 2014 (Local Time) from KTSP Reporting Station
Overcast Overcast  
Wind Chill: 50°   Ceiling: 1400
Heat Index: 50°   Visibility: 10mi
Dew Point: 46°   Wind: 17mph
Humidity: 87%   Direction: 320°NW
Pressure: 30.25"   Gusts: NA
Location:  35.1338°N, 118.552°W
Report Text: KTSP 221915Z AUTO 32015KT 10SM OVC014 10/08 A3025 RMK AO2
Loading
Personal Weather Stations






























Interactive Weather Map New forecast layout! Learn more

10-Day Weather Forecast

Advertisements
Track Severe Weather on mobile